| time (UTC) | temp C | wind direction | speed KPH | gust KPH | rain 1hr cm | rain 24hr cm | rain mn cm | humidity % | barometer mb |
| 20260509064512 | 11 | 167 | 0.0 | 1.6 | 0.00 | 0.43 | 0.00 | 91 | 1007.5 |
| 20260509063014 | 11 | 160 | 0.0 | 4.8 | 0.00 | 0.43 | 0.00 | 91 | 1007.6 |
| 20260509061511 | 11 | 193 | 0.0 | 8.0 | 0.00 | 0.43 | 0.00 | 91 | 1007.7 |
| 20260509060008 | 11 | 148 | 0.0 | 11.3 | 0.00 | 0.43 | 0.00 | 91 | 1008.0 |
| 20260509054507 | 11 | 165 | 0.0 | 8.0 | 0.00 | 0.43 | 0.00 | 91 | 1008.0 |
| 20260509053007 | 11 | 177 | 1.6 | 8.0 | 0.00 | 0.43 | 0.00 | 91 | 1008.1 |
| 20260509051505 | 11 | 136 | 0.0 | 0.0 | 0.00 | 0.43 | 0.00 | 91 | 1007.9 |
| 20260509050010 | 11 | 158 | 0.0 | 3.2 | 0.00 | 0.43 | 0.00 | 91 | 1007.8 |
| 20260509044502 | 11 | 215 | 0.0 | 0.0 | 0.00 | 0.43 | 0.00 | 91 | 1008.0 |
| 20260509043103 | 11 | 188 | 0.0 | 1.6 | 0.00 | 0.43 | 0.00 | 91 | 1008.0 |
| 20260509041600 | 11 | 185 | 0.0 | 1.6 | 0.00 | 0.43 | 0.00 | 91 | 1008.0 |
| 20260509040058 | 11 | 159 | 0.0 | 0.0 | 0.00 | 0.43 | 0.00 | 91 | 1008.1 |
| 20260509034557 | 11 | 157 | 0.0 | 0.0 | 0.00 | 0.43 | 0.43 | 91 | 1008.2 |
| 20260509033056 | 11 | 162 | 0.0 | 0.0 | 0.00 | 0.43 | 0.43 | 90 | 1008.2 |
| 20260509031617 | 11 | 245 | 0.0 | 1.6 | 0.00 | 0.43 | 0.43 | 90 | 1008.1 |
| 20260509030057 | 11 | 146 | 0.0 | 1.6 | 0.00 | 0.43 | 0.43 | 91 | 1008.2 |
| 20260509024554 | 11 | 153 | 0.0 | 0.0 | 0.00 | 0.43 | 0.43 | 91 | 1008.2 |
| 20260509023058 | 11 | 156 | 0.0 | 1.6 | 0.00 | 0.43 | 0.43 | 91 | 1008.2 |
| 20260509021552 | 11 | 180 | 0.0 | 1.6 | 0.00 | 0.43 | 0.43 | 90 | 1008.1 |
| 20260509020051 | 11 | 198 | 0.0 | 4.8 | 0.00 | 0.43 | 0.43 | 90 | 1008.2 |
| 20260509014552 | 11 | 259 | 0.0 | 0.0 | 0.00 | 0.43 | 0.43 | 90 | 1008.1 |
| 20260509013050 | 11 | 190 | 0.0 | 3.2 | 0.00 | 0.43 | 0.43 | 90 | 1008.2 |
| 20260509011550 | 11 | 186 | 0.0 | 1.6 | 0.00 | 0.43 | 0.43 | 90 | 1008.3 |
| 20260509010049 | 11 | 195 | 0.0 | 1.6 | 0.00 | 0.43 | 0.43 | 89 | 1008.2 |
| 20260509004552 | 11 | 168 | 0.0 | 0.0 | 0.00 | 0.43 | 0.43 | 89 | 1008.2 |
| 20260509003047 | 11 | 181 | 0.0 | 6.4 | 0.00 | 0.43 | 0.43 | 89 | 1008.4 |
| 20260509001546 | 11 | 200 | 0.0 | 9.7 | 0.00 | 0.43 | 0.43 | 89 | 1008.3 |
| 20260509000101 | 12 | 222 | 0.0 | 8.0 | 0.00 | 0.43 | 0.43 | 89 | 1008.5 |
| 20260508234545 | 12 | 200 | 0.0 | 8.0 | 0.00 | 0.43 | 0.43 | 89 | 1008.5 |
| 20260508233044 | 12 | 239 | 0.0 | 1.6 | 0.00 | 0.43 | 0.43 | 88 | 1008.4 |
| 20260508231549 | 12 | 250 | 0.0 | 9.7 | 0.00 | 0.43 | 0.43 | 88 | 1008.5 |
| 20260508230042 | 12 | 203 | 0.0 | 1.6 | 0.00 | 0.43 | 0.43 | 89 | 1008.7 |
| 20260508224542 | 12 | 207 | 0.0 | 1.6 | 0.00 | 0.43 | 0.43 | 89 | 1008.6 |
| 20260508223041 | 12 | 194 | 0.0 | 1.6 | 0.00 | 0.43 | 0.43 | 89 | 1008.6 |
| 20260508221540 | 12 | 169 | 0.0 | 0.0 | 0.00 | 0.43 | 0.43 | 89 | 1008.6 |
| 20260508220043 | 12 | 283 | 0.0 | 1.6 | 0.00 | 0.43 | 0.43 | 89 | 1008.6 |
| 20260508214540 | 12 | 256 | 0.0 | 4.8 | 0.03 | 0.46 | 0.43 | 89 | 1008.5 |
| 20260508213047 | 12 | 200 | 0.0 | 1.6 | 0.05 | 0.46 | 0.43 | 89 | 1008.4 |
| 20260508211537 | 12 | 186 | 0.0 | 6.4 | 0.13 | 0.46 | 0.43 | 89 | 1008.7 |
| 20260508210035 | 11 | 201 | 0.0 | 0.0 | 0.20 | 0.46 | 0.43 | 89 | 1008.9 |
| 20260508204533 | 12 | 226 | 0.0 | 4.8 | 0.28 | 0.43 | 0.41 | 89 | 1009.2 |
| 20260508203034 | 12 | 165 | 0.0 | 8.0 | 0.25 | 0.41 | 0.38 | 88 | 1009.3 |
| 20260508201529 | 12 | 198 | 0.0 | 4.8 | 0.20 | 0.33 | 0.30 | 88 | 1009.7 |
| 20260508200038 | 13 | 183 | 0.0 | 1.6 | 0.13 | 0.25 | 0.23 | 88 | 1009.7 |
| 20260508194526 | 13 | 273 | 0.0 | 0.0 | 0.03 | 0.15 | 0.13 | 87 | 1009.9 |
| 20260508193024 | 14 | 295 | 0.0 | 0.0 | 0.05 | 0.15 | 0.13 | 84 | 1009.9 |
| 20260508191529 | 14 | 293 | 0.0 | 6.4 | 0.03 | 0.13 | 0.10 | 81 | 1010.0 |
| 20260508190032 | 15 | 255 | 0.0 | 4.8 | 0.03 | 0.13 | 0.10 | 81 | 1010.0 |
| 20260508184523 | 15 | 255 | 0.0 | 8.0 | 0.03 | 0.13 | 0.10 | 78 | 1010.0 |
| 20260508183022 | 16 | 253 | 1.6 | 11.3 | 0.00 | 0.10 | 0.08 | 71 | 1010.1 |
| 20260508181541 | 17 | 250 | 0.0 | 8.0 | 0.00 | 0.10 | 0.08 | 68 | 1010.0 |
| 20260508180019 | 17 | 262 | 0.0 | 8.0 | 0.00 | 0.10 | 0.08 | 61 | 1010.1 |
| 20260508174519 | 18 | 218 | 0.0 | 12.9 | 0.00 | 0.10 | 0.08 | 59 | 1010.3 |
| 20260508173016 | 17 | 207 | 0.0 | 12.9 | 0.00 | 0.10 | 0.08 | 60 | 1010.3 |
| 20260508171515 | 18 | 233 | 0.0 | 9.7 | 0.00 | 0.10 | 0.08 | 63 | 1010.4 |
| 20260508170014 | 17 | 242 | 1.6 | 11.3 | 0.00 | 0.10 | 0.08 | 63 | 1010.7 |
| 20260508164515 | 16 | 149 | 0.0 | 11.3 | 0.00 | 0.10 | 0.08 | 65 | 1011.1 |
| 20260508163007 | 16 | 274 | 0.0 | 1.6 | 0.00 | 0.10 | 0.08 | 67 | 1011.4 |
| 20260508161506 | 16 | 173 | 0.0 | 8.0 | 0.00 | 0.10 | 0.08 | 66 | 1011.7 |
| 20260508160005 | 16 | 242 | 0.0 | 8.0 | 0.00 | 0.10 | 0.08 | 63 | 1012.0 |
| 20260508154502 | 17 | 214 | 0.0 | 8.0 | 0.00 | 0.10 | 0.08 | 61 | 1012.0 |
| 20260508153103 | 16 | 190 | 0.0 | 6.4 | 0.00 | 0.10 | 0.08 | 64 | 1011.9 |
| 20260508151601 | 15 | 219 | 0.0 | 3.2 | 0.00 | 0.10 | 0.08 | 67 | 1012.0 |
| 20260508150052 | 15 | 176 | 3.2 | 12.9 | 0.00 | 0.10 | 0.08 | 65 | 1012.3 |
| 20260508144552 | 14 | 253 | 0.0 | 12.9 | 0.00 | 0.10 | 0.08 | 66 | 1012.4 |
| 20260508143048 | 14 | 240 | 0.0 | 14.5 | 0.00 | 0.10 | 0.08 | 67 | 1012.5 |
| 20260508141554 | 13 | 233 | 0.0 | 6.4 | 0.00 | 0.10 | 0.08 | 70 | 1012.4 |
| 20260508140052 | 12 | 239 | 0.0 | 8.0 | 0.00 | 0.10 | 0.08 | 73 | 1012.7 |
| 20260508134538 | 12 | 207 | 0.0 | 8.0 | 0.00 | 0.10 | 0.08 | 74 | 1012.8 |
| 20260508133038 | 11 | 203 | 0.0 | 3.2 | 0.00 | 0.10 | 0.08 | 74 | 1012.9 |
| 20260508131537 | 11 | 222 | 0.0 | 11.3 | 0.00 | 0.10 | 0.08 | 73 | 1012.7 |
| 20260508130037 | 12 | 181 | 0.0 | 6.4 | 0.00 | 0.10 | 0.08 | 74 | 1012.6 |
| 20260508124535 | 11 | 232 | 0.0 | 9.7 | 0.00 | 0.10 | 0.08 | 75 | 1012.8 |
| 20260508123032 | 11 | 150 | 0.0 | 8.0 | 0.00 | 0.10 | 0.08 | 78 | 1012.8 |
| 20260508121531 | 10 | 158 | 0.0 | 4.8 | 0.00 | 0.10 | 0.08 | 79 | 1012.7 |
| 20260508120037 | 10 | 193 | 0.0 | 8.0 | 0.00 | 0.10 | 0.08 | 79 | 1012.5 |
| 20260508114529 | 10 | 236 | 0.0 | 6.4 | 0.00 | 0.10 | 0.08 | 80 | 1012.5 |
| 20260508113028 | 9 | 217 | 0.0 | 1.6 | 0.03 | 0.10 | 0.08 | 84 | 1012.6 |
| 20260508111539 | 8 | 246 | 0.0 | 0.0 | 0.03 | 0.10 | 0.08 | 87 | 1012.7 |
| 20260508110027 | 8 | 134 | 0.0 | 0.0 | 0.03 | 0.10 | 0.08 | 87 | 1012.6 |
| 20260508104527 | 8 | 220 | 0.0 | 0.0 | 0.03 | 0.10 | 0.08 | 86 | 1012.6 |
| 20260508103031 | 9 | 283 | 0.0 | 0.0 | 0.00 | 0.08 | 0.05 | 85 | 1012.6 |
| 20260508101534 | 9 | 221 | 0.0 | 11.3 | 0.00 | 0.08 | 0.05 | 84 | 1012.5 |
| 20260508100028 | 8 | 219 | 0.0 | 1.6 | 0.03 | 0.08 | 0.05 | 85 | 1012.8 |
| 20260508094523 | 9 | 155 | 0.0 | 9.7 | 0.05 | 0.08 | 0.05 | 85 | 1012.4 |
| 20260508093022 | 9 | 218 | 0.0 | 9.7 | 0.05 | 0.08 | 0.05 | 84 | 1012.9 |
| 20260508091521 | 9 | 228 | 0.0 | 6.4 | 0.05 | 0.08 | 0.05 | 84 | 1013.1 |
| 20260508090021 | 10 | 234 | 0.0 | 9.7 | 0.03 | 0.05 | 0.03 | 82 | 1013.4 |
| 20260508084621 | 10 | 257 | 1.6 | 8.0 | 0.00 | 0.03 | 0.00 | 77 | 1013.2 |
| 20260508083018 | 11 | 237 | 0.0 | 8.0 | 0.00 | 0.03 | 0.00 | 74 | 1012.5 |
| 20260508081517 | 10 | 142 | 0.0 | 4.8 | 0.00 | 0.03 | 0.00 | 74 | 1012.4 |
| 20260508080016 | 10 | 240 | 0.0 | 4.8 | 0.00 | 0.03 | 0.00 | 77 | 1012.5 |
| 20260508074515 | 10 | 172 | 0.0 | 11.3 | 0.00 | 0.03 | 0.00 | 76 | 1012.5 |
| 20260508073012 | 10 | 138 | 1.6 | 19.3 | 0.00 | 0.03 | 0.00 | 75 | 1012.8 |
| 20260508071508 | 10 | 111 | 0.0 | 3.2 | 0.00 | 0.03 | 0.00 | 74 | 1012.9 |
| 20260508070008 | 10 | 307 | 0.0 | 3.2 | 0.00 | 0.03 | 0.00 | 75 | 1013.1 |